Georgia State University, Georgia
Current Conditions -  °F | °C
As of 8:52 AM on Saturday 22 Nov 2014 (Local Time) from KATL Reporting Station
Few Clouds Few Clouds  
Wind Chill: 36°   Ceiling: Unl
Heat Index: 42°   Visibility: 10mi
Dew Point: 27°   Wind: 12mph
Humidity: 55%   Direction: 90°E
Pressure: 30.47"   Gusts: NA
Location:  33.7534°N, 84.3891°W
Report Text: KATL 221352Z 09010KT 10SM FEW250 06/M03 A3047 RMK AO2 SLP319 T00561028
Loading
Personal Weather Stations






























Interactive Weather Map New forecast layout! Learn more

10-Day Weather Forecast

Advertisements
Track Severe Weather on mobile